Time;durP1;ratioP1;P1;durP2;ratioP2;P2;SDS_P1;SDS_P2;PMS_P1;PMS_P2;Temp;Humidity;BMP_temperature;BMP_pressure;BME280_temperature;BME280_humidity;BME280_pressure;Samples;Min_cycle;Max_cycle;Signal;HPM_P1;HPM_P2
2022/08/06 00:00:03;;;;;;;;;;;;;;;28.26;48.04;99824.16;2090770;28;19916;-53
2022/08/06 00:01:03;;;;;;;;;;;;;;;28.25;48.02;99826.06;2087925;28;19916;-50
2022/08/06 00:02:04;;;;;;;;;;;;;;;28.27;48.08;99834.16;2092845;28;20001;-53
2022/08/06 00:03:04;;;;;;;;;;;;;;;28.26;48.07;99824.16;2091474;28;20264;-52
2022/08/06 00:04:04;;;;;;;;;;;;;;;28.25;48.01;99833.50;2090022;28;20214;-51
2022/08/06 00:05:05;;;;;;;;;;;;;;;28.25;47.87;99839.94;2090627;28;19981;-53
2022/08/06 00:06:05;;;;;;;;;;;;;;;28.25;48.01;99833.50;2092360;28;19923;-53
2022/08/06 00:07:05;;;;;;;;;;;;;;;28.24;48.07;99834.59;2084523;28;19916;-53
2022/08/06 00:08:06;;;;;;;;;;;;;;;28.25;47.94;99836.28;2090131;28;19970;-53
2022/08/06 00:09:06;;;;;;;;;;;;;;;28.25;47.82;99833.50;2087942;28;19920;-53
2022/08/06 00:10:07;;;;;;;;;;;;;;;28.24;48.09;99837.38;2085895;28;19917;-54
2022/08/06 00:11:07;;;;;;;;;;;;;;;28.25;48.02;99839.06;2090860;28;20010;-53
2022/08/06 00:12:07;;;;;;;;;;;;;;;28.25;48.07;99839.06;2085652;28;19917;-53
2022/08/06 00:13:08;;;;;;;;;;;;;;;28.24;48.11;99834.59;2089385;28;20632;-53
2022/08/06 00:14:08;;;;;;;;;;;;;;;28.23;47.97;99835.66;2088696;28;20709;-54
2022/08/06 00:15:09;;;;;;;;;;;;;;;28.25;48.02;99833.50;2093632;28;19916;-53
2022/08/06 00:16:10;;;;;;;;;;;;;;;28.23;48.09;99841.22;2088194;28;19923;-53
2022/08/06 00:17:10;;;;;;;;;;;;;;;28.23;48.11;99833.75;2088008;28;20041;-52
2022/08/06 00:18:10;;;;;;;;;;;;;;;28.24;48.10;99837.38;2091696;28;20168;-55
2022/08/06 00:19:11;;;;;;;;;;;;;;;28.22;47.92;99834.78;2092710;28;19917;-52
2022/08/06 00:20:12;;;;;;;;;;;;;;;28.23;47.98;99838.44;2088509;28;19950;-53
2022/08/06 00:21:12;;;;;;;;;;;;;;;28.23;48.08;99838.44;2092180;28;20184;-49
2022/08/06 00:22:13;;;;;;;;;;;;;;;28.23;47.94;99841.22;2090814;28;20152;-52
2022/08/06 00:23:13;;;;;;;;;;;;;;;28.21;48.09;99842.25;2088136;28;20533;-53
2022/08/06 00:24:14;;;;;;;;;;;;;;;28.21;48.04;99836.72;2091670;28;19916;-53
2022/08/06 00:25:14;;;;;;;;;;;;;;;28.21;47.98;99846.97;2091422;28;19963;-55
2022/08/06 00:26:15;;;;;;;;;;;;;;;28.20;48.00;99843.34;2093263;28;19927;-52
2022/08/06 00:27:15;;;;;;;;;;;;;;;28.19;47.98;99841.63;2091020;28;19930;-52
2022/08/06 00:28:16;;;;;;;;;;;;;;;28.20;47.91;99845.28;2089959;28;19958;-51
2022/08/06 00:29:16;;;;;;;;;;;;;;;28.20;48.06;99848.88;2094349;28;19954;-53
2022/08/06 00:30:16;;;;;;;;;;;;;;;28.19;47.93;99847.16;2089790;28;20334;-52
2022/08/06 00:31:17;;;;;;;;;;;;;;;28.19;47.96;99840.78;2082836;28;20809;-52
2022/08/06 00:32:17;;;;;;;;;;;;;;;28.19;48.05;99841.63;2090619;28;19923;-53
2022/08/06 00:33:17;;;;;;;;;;;;;;;28.20;48.04;99842.50;2092313;28;19938;-50
2022/08/06 00:34:17;;;;;;;;;;;;;;;28.20;47.98;99846.13;2093761;28;19952;-53
2022/08/06 00:35:21;;;;;;;;;;;;;;;28.19;47.97;99838.84;2090222;28;19916;-52
2022/08/06 00:36:22;;;;;;;;;;;;;;;28.19;48.08;99844.41;2091785;28;19917;-52
2022/08/06 00:37:22;;;;;;;;;;;;;;;28.19;48.01;99847.16;2092035;28;20007;-53
2022/08/06 00:38:23;;;;;;;;;;;;;;;28.19;48.01;99847.16;2090646;28;19917;-53
2022/08/06 00:39:23;;;;;;;;;;;;;;;28.19;47.89;99844.41;2094742;28;19922;-52
2022/08/06 00:40:24;;;;;;;;;;;;;;;28.19;48.08;99841.63;2086560;28;19961;-52
2022/08/06 00:41:24;;;;;;;;;;;;;;;28.19;47.97;99849.94;2092474;28;20307;-52
2022/08/06 00:42:26;;;;;;;;;;;;;;;28.19;47.89;99843.56;2090946;28;20093;-53
2022/08/06 00:43:26;;;;;;;;;;;;;;;28.20;47.92;99848.88;2093356;28;20234;-53
2022/08/06 00:44:26;;;;;;;;;;;;;;;28.19;48.04;99847.16;2092196;28;19992;-53
2022/08/06 00:45:27;;;;;;;;;;;;;;;28.19;47.99;99849.94;2089731;28;20151;-52
2022/08/06 00:46:27;;;;;;;;;;;;;;;28.19;47.74;99851.88;2094182;28;20415;-52
2022/08/06 00:47:28;;;;;;;;;;;;;;;28.18;47.80;99852.94;2091981;28;19976;-51
2022/08/06 00:48:28;;;;;;;;;;;;;;;28.18;47.80;99845.47;2091474;28;19951;-54
2022/08/06 00:49:29;;;;;;;;;;;;;;;28.20;47.89;99854.44;2093456;28;20435;-53
2022/08/06 00:50:30;;;;;;;;;;;;;;;28.19;47.86;99852.72;2092363;28;19948;-53
2022/08/06 00:51:30;;;;;;;;;;;;;;;28.19;47.83;99849.94;2091724;28;20231;-52
2022/08/06 00:52:31;;;;;;;;;;;;;;;28.18;47.86;99853.78;2084716;28;20420;-52
2022/08/06 00:53:31;;;;;;;;;;;;;;;28.18;47.90;99847.41;2091246;28;20020;-53
2022/08/06 00:54:31;;;;;;;;;;;;;;;28.18;47.84;99848.25;2093108;28;19916;-52
2022/08/06 00:55:32;;;;;;;;;;;;;;;28.17;47.92;99849.31;2090530;28;20279;-53
2022/08/06 00:56:32;;;;;;;;;;;;;;;28.16;47.78;99847.59;2090425;28;19939;-53
2022/08/06 00:57:33;;;;;;;;;;;;;;;28.17;47.87;99851.22;2094246;28;19922;-51
2022/08/06 00:58:33;;;;;;;;;;;;;;;28.16;47.65;99852.31;2087524;28;19920;-52
2022/08/06 00:59:33;;;;;;;;;;;;;;;28.15;47.95;99857.00;2087635;28;19957;-52
2022/08/06 01:00:34;;;;;;;;;;;;;;;28.15;47.87;99857.00;2092509;28;20394;-53
2022/08/06 01:01:34;;;;;;;;;;;;;;;28.15;47.85;99851.47;2090408;28;19923;-52
2022/08/06 01:02:34;;;;;;;;;;;;;;;28.14;47.81;99846.97;2093690;28;19916;-52
2022/08/06 01:03:35;;;;;;;;;;;;;;;28.15;47.82;99854.22;2089677;28;20249;-53
2022/08/06 01:04:35;;;;;;;;;;;;;;;28.16;47.95;99863.38;2087344;28;19920;-53
2022/08/06 01:05:35;;;;;;;;;;;;;;;28.14;47.75;99855.28;2091996;28;19952;-52
2022/08/06 01:06:36;;;;;;;;;;;;;;;28.14;47.88;99855.28;2089681;28;20592;-53
2022/08/06 01:07:36;;;;;;;;;;;;;;;28.15;47.74;99862.53;2086389;28;19916;-52
2022/08/06 01:08:36;;;;;;;;;;;;;;;28.16;47.73;99863.38;2087410;28;19993;-52
2022/08/06 01:09:37;;;;;;;;;;;;;;;28.16;47.78;99860.63;2090003;28;19920;-52
2022/08/06 01:10:37;;;;;;;;;;;;;;;28.15;47.68;99862.53;2092746;28;19924;-52
2022/08/06 01:11:38;;;;;;;;;;;;;;;28.14;47.82;99863.59;2091967;28;19993;-53
2022/08/06 01:12:38;;;;;;;;;;;;;;;28.16;47.73;99866.16;2093142;28;19923;-51
2022/08/06 01:13:38;;;;;;;;;;;;;;;28.15;47.61;99862.53;2092225;28;19923;-53
2022/08/06 01:14:39;;;;;;;;;;;;;;;28.15;47.64;99857.00;2088872;28;19916;-53
2022/08/06 01:15:40;;;;;;;;;;;;;;;28.15;47.67;99857.00;2090823;28;19964;-53
2022/08/06 01:16:44;;;;;;;;;;;;;;;28.16;47.58;99860.63;2090525;28;19948;-50
2022/08/06 01:18:02;;;;;;;;;;;;;;;28.14;47.50;99860.81;2090250;28;19963;-53
2022/08/06 01:19:03;;;;;;;;;;;;;;;28.14;47.79;99858.03;2089321;28;20006;-53
2022/08/06 01:20:06;;;;;;;;;;;;;;;28.14;47.67;99866.38;2091505;28;19992;-53
2022/08/06 01:21:06;;;;;;;;;;;;;;;28.14;47.65;99860.81;2090530;28;20177;-53
2022/08/06 01:22:06;;;;;;;;;;;;;;;28.15;47.63;99862.53;2094043;28;19912;-53
2022/08/06 01:23:06;;;;;;;;;;;;;;;28.13;47.45;99864.66;2088524;28;19944;-53
2022/08/06 01:24:13;;;;;;;;;;;;;;;28.14;47.61;99858.03;2089955;28;20298;-53
2022/08/06 01:25:19;;;;;;;;;;;;;;;28.15;47.64;99859.78;2091191;28;19924;-53
2022/08/06 01:26:19;;;;;;;;;;;;;;;28.14;47.60;99860.81;2092033;28;19952;-52
2022/08/06 01:27:25;;;;;;;;;;;;;;;28.16;47.52;99861.47;2088520;28;19939;-49
2022/08/06 01:28:40;;;;;;;;;;;;;;;28.14;47.58;99863.59;2088129;28;19916;-52
2022/08/06 01:29:43;;;;;;;;;;;;;;;28.14;47.54;99860.81;2085754;28;20302;-52
2022/08/06 01:30:46;;;;;;;;;;;;;;;28.14;47.58;99866.38;2091854;28;19904;-53
2022/08/06 01:31:59;;;;;;;;;;;;;;;28.15;47.42;99868.09;2092411;28;19987;-53
2022/08/06 01:32:59;;;;;;;;;;;;;;;28.13;47.55;99867.44;2089418;28;19916;-52
2022/08/06 01:34:05;;;;;;;;;;;;;;;28.13;47.53;99870.22;2092592;28;19937;-54
2022/08/06 01:35:07;;;;;;;;;;;;;;;28.13;47.54;99867.44;2092750;28;19923;-53
2022/08/06 01:36:09;;;;;;;;;;;;;;;28.13;47.44;99869.38;2091128;28;19916;-53
2022/08/06 01:37:25;;;;;;;;;;;;;;;28.12;47.47;99871.25;2087290;28;20193;-52
2022/08/06 01:38:29;;;;;;;;;;;;;;;28.12;47.59;99868.50;2089650;28;20393;-53
2022/08/06 01:39:30;;;;;;;;;;;;;;;28.12;47.45;99865.72;2092321;28;20013;-53
2022/08/06 01:40:32;;;;;;;;;;;;;;;28.12;47.56;99871.25;2092618;28;20222;-50
2022/08/06 01:41:39;;;;;;;;;;;;;;;28.11;47.61;99864.03;2091171;28;19916;-54
2022/08/06 01:42:40;;;;;;;;;;;;;;;28.11;47.58;99861.25;2091313;28;19922;-53
2022/08/06 01:43:42;;;;;;;;;;;;;;;28.11;47.59;99866.81;2087156;28;19923;-52
2022/08/06 01:44:45;;;;;;;;;;;;;;;28.11;47.53;99869.56;2090153;28;19916;-53
2022/08/06 01:45:46;;;;;;;;;;;;;;;28.11;47.59;99872.34;2094940;28;20016;-51
2022/08/06 01:46:48;;;;;;;;;;;;;;;28.11;47.56;99877.03;2090889;28;20007;-51
2022/08/06 01:47:51;;;;;;;;;;;;;;;28.11;47.52;99880.66;2076118;28;19971;-51
2022/08/06 01:48:52;;;;;;;;;;;;;;;28.11;47.44;99872.34;2075095;28;19917;-53
2022/08/06 01:49:54;;;;;;;;;;;;;;;28.12;47.45;99876.81;2091802;28;19916;-53
2022/08/06 01:50:57;;;;;;;;;;;;;;;28.11;47.42;99877.88;2098371;28;19931;-53
2022/08/06 01:51:58;;;;;;;;;;;;;;;28.12;47.40;99873.19;2093706;28;19923;-54
2022/08/06 01:53:01;;;;;;;;;;;;;;;28.12;47.60;99876.81;2090465;28;20518;-52
2022/08/06 01:54:02;;;;;;;;;;;;;;;28.13;47.52;99872.97;2094588;28;19912;-52
2022/08/06 01:55:05;;;;;;;;;;;;;;;28.11;47.40;99875.13;2092714;28;19926;-53
2022/08/06 01:56:06;;;;;;;;;;;;;;;28.12;47.39;99874.03;2093849;28;19920;-53
2022/08/06 01:57:07;;;;;;;;;;;;;;;28.11;47.53;99872.34;2093445;28;20272;-53
2022/08/06 01:58:09;;;;;;;;;;;;;;;28.12;47.39;99876.81;2090725;28;19973;-52
2022/08/06 01:59:12;;;;;;;;;;;;;;;28.12;47.31;99878.72;2086555;28;19916;-52
2022/08/06 02:00:13;;;;;;;;;;;;;;;28.12;47.30;99885.13;2093077;28;19971;-52
2022/08/06 02:01:15;;;;;;;;;;;;;;;28.12;47.45;99889.81;2093312;28;19916;-53
2022/08/06 02:02:20;;;;;;;;;;;;;;;28.12;47.24;99885.13;2086799;28;20245;-51
2022/08/06 02:03:42;;;;;;;;;;;;;;;28.11;47.32;99883.44;2090008;28;20357;-53
2022/08/06 02:04:44;;;;;;;;;;;;;;;28.12;47.46;99885.13;2095177;28;20000;-53
2022/08/06 02:05:46;;;;;;;;;;;;;;;28.11;47.31;99885.34;2090181;28;20330;-53
2022/08/06 02:06:47;;;;;;;;;;;;;;;28.11;47.41;99891.75;2093683;28;19912;-53
2022/08/06 02:07:50;;;;;;;;;;;;;;;28.12;47.37;99892.59;2093954;28;19924;-52
2022/08/06 02:08:51;;;;;;;;;;;;;;;28.11;47.33;99891.75;2092908;28;20389;-52
2022/08/06 02:09:52;;;;;;;;;;;;;;;28.11;47.18;99894.50;2093624;28;19951;-52
2022/08/06 02:10:54;;;;;;;;;;;;;;;28.11;47.27;99883.44;2087413;28;20265;-53
2022/08/06 02:12:03;;;;;;;;;;;;;;;28.11;47.44;99883.44;2085006;28;19917;-53
2022/08/06 02:13:05;;;;;;;;;;;;;;;28.11;47.39;99891.75;2082097;28;19924;-53
2022/08/06 02:14:06;;;;;;;;;;;;;;;28.11;47.19;99882.59;2093234;28;20069;-52
2022/08/06 02:15:13;;;;;;;;;;;;;;;28.10;47.27;99890.03;2095284;28;19965;-53
2022/08/06 02:16:14;;;;;;;;;;;;;;;28.11;47.18;99883.44;2093301;28;20237;-53
2022/08/06 02:17:17;;;;;;;;;;;;;;;28.10;47.20;99891.94;2097501;28;19924;-53
2022/08/06 02:18:17;;;;;;;;;;;;;;;28.11;47.39;99893.66;2089697;28;20388;-52
2022/08/06 02:19:18;;;;;;;;;;;;;;;28.10;47.21;99878.97;2088577;28;20398;-53
2022/08/06 02:20:22;;;;;;;;;;;;;;;28.09;47.31;99888.31;2093282;28;19944;-53
2022/08/06 02:21:23;;;;;;;;;;;;;;;28.09;47.20;99885.56;2086327;28;19970;-54
2022/08/06 02:22:24;;;;;;;;;;;;;;;28.09;47.38;99880.00;2094718;28;19916;-53
2022/08/06 02:23:25;;;;;;;;;;;;;;;28.09;47.33;99873.63;2092656;28;20012;-54
2022/08/06 02:24:26;;;;;;;;;;;;;;;28.08;47.30;99889.41;2092799;28;19916;-50
2022/08/06 02:25:27;;;;;;;;;;;;;;;28.08;47.30;99885.78;2088951;28;19916;-54
2022/08/06 02:26:29;;;;;;;;;;;;;;;28.08;47.25;99885.78;2092286;28;19922;-53
2022/08/06 02:27:30;;;;;;;;;;;;;;;28.07;47.23;99884.91;2092673;28;20251;-53
2022/08/06 02:28:33;;;;;;;;;;;;;;;28.08;47.23;99888.56;2088992;28;19912;-52
2022/08/06 02:29:35;;;;;;;;;;;;;;;28.07;47.30;99887.69;2092735;28;19909;-53
2022/08/06 02:30:36;;;;;;;;;;;;;;;28.07;47.22;99887.69;2090700;28;19920;-53
2022/08/06 02:31:37;;;;;;;;;;;;;;;28.07;47.36;99893.22;2089925;28;19956;-52
2022/08/06 02:32:37;;;;;;;;;;;;;;;28.06;47.34;99888.75;2094540;28;19933;-53
2022/08/06 02:33:38;;;;;;;;;;;;;;;28.07;47.30;99887.69;2092233;28;19922;-53
2022/08/06 02:34:38;;;;;;;;;;;;;;;28.07;47.25;99887.69;2092414;28;19916;-53
2022/08/06 02:35:48;;;;;;;;;;;;;;;28.07;47.32;99876.59;2093548;28;19962;-52
2022/08/06 02:37:17;;;;;;;;;;;;;;;28.07;47.28;99875.75;2090787;28;20312;-53
2022/08/06 02:38:37;;;;;;;;;;;;;;;28.06;47.34;99874.91;2069866;28;20145;-53
2022/08/06 02:39:43;;;;;;;;;;;;;;;28.07;47.26;99872.97;2093674;28;19912;-51
2022/08/06 02:40:46;;;;;;;;;;;;;;;28.07;47.43;99881.28;2091931;28;19919;-54
2022/08/06 02:42:03;;;;;;;;;;;;;;;28.06;47.30;99869.38;2091858;28;19908;-52
2022/08/06 02:43:10;;;;;;;;;;;;;;;28.06;47.14;99874.91;2091934;28;19920;-52
2022/08/06 02:44:30;;;;;;;;;;;;;;;28.06;47.29;99882.38;2091079;28;19958;-52
2022/08/06 02:45:38;;;;;;;;;;;;;;;28.06;47.25;99874.91;2067837;28;20341;-53
2022/08/06 02:46:43;;;;;;;;;;;;;;;28.07;47.11;99878.53;2091423;28;20005;-54
2022/08/06 02:47:56;;;;;;;;;;;;;;;28.06;47.17;99868.53;2091546;28;19912;-52
2022/08/06 02:49:16;;;;;;;;;;;;;;;28.07;47.27;99871.06;2092289;28;19908;-53
2022/08/06 02:50:17;;;;;;;;;;;;;;;28.06;47.16;99863.81;2086129;28;19922;-53
2022/08/06 02:51:25;;;;;;;;;;;;;;;28.06;47.20;99866.59;2093859;28;20350;-53
2022/08/06 02:52:28;;;;;;;;;;;;;;;28.06;47.15;99863.81;2090388;28;19999;-52
2022/08/06 02:53:34;;;;;;;;;;;;;;;28.06;47.15;99862.97;2090865;28;19916;-52
2022/08/06 02:54:38;;;;;;;;;;;;;;;28.05;47.17;99862.13;2091118;28;20235;-52
2022/08/06 02:55:42;;;;;;;;;;;;;;;28.05;47.24;99870.44;2091416;28;20389;-53
2022/08/06 02:56:44;;;;;;;;;;;;;;;28.04;47.28;99867.88;2094391;28;19908;-54
2022/08/06 02:57:56;;;;;;;;;;;;;;;28.04;47.17;99860.41;2092096;28;19915;-52
2022/08/06 02:58:58;;;;;;;;;;;;;;;28.05;47.17;99866.81;2093591;28;19915;-52
2022/08/06 03:00:01;;;;;;;;;;;;;;;28.04;47.14;99860.41;2092455;28;20570;-53
2022/08/06 03:01:03;;;;;;;;;;;;;;;28.04;47.20;99863.19;2093176;28;19916;-52
2022/08/06 03:02:06;;;;;;;;;;;;;;;28.04;47.12;99865.94;2089657;28;19977;-51
2022/08/06 03:03:07;;;;;;;;;;;;;;;28.04;47.28;99862.34;2094478;28;20322;-53
2022/08/06 03:04:08;;;;;;;;;;;;;;;28.03;47.07;99868.94;2091432;28;20034;-53
2022/08/06 03:05:13;;;;;;;;;;;;;;;28.04;47.18;99867.88;2081109;28;20240;-52
2022/08/06 03:06:15;;;;;;;;;;;;;;;28.04;47.11;99865.09;2093466;28;20229;-52
2022/08/06 03:07:17;;;;;;;;;;;;;;;28.03;47.13;99867.03;2090450;28;20142;-52
2022/08/06 03:08:21;;;;;;;;;;;;;;;28.02;47.11;99862.53;2089171;28;20452;-53
2022/08/06 03:09:22;;;;;;;;;;;;;;;28.02;47.01;99870.84;2092505;28;20243;-53
2022/08/06 03:10:24;;;;;;;;;;;;;;;28.02;47.14;99862.53;2090474;28;19999;-54
2022/08/06 03:11:26;;;;;;;;;;;;;;;28.02;47.12;99862.53;2090927;28;20007;-53
2022/08/06 03:12:27;;;;;;;;;;;;;;;28.01;47.17;99860.84;2091007;28;19915;-53
2022/08/06 03:13:27;;;;;;;;;;;;;;;28.01;47.12;99866.38;2093473;28;20736;-53
2022/08/06 03:14:29;;;;;;;;;;;;;;;28.01;47.18;99860.84;2086742;28;20348;-54
2022/08/06 03:15:29;;;;;;;;;;;;;;;28.01;47.16;99860.84;2088522;28;19943;-53
2022/08/06 03:16:31;;;;;;;;;;;;;;;28.00;47.14;99861.91;2089619;28;19970;-52
2022/08/06 03:17:32;;;;;;;;;;;;;;;28.01;47.24;99866.38;2091296;28;20145;-53
2022/08/06 03:18:34;;;;;;;;;;;;;;;27.99;47.11;99868.53;2090545;28;19908;-52
2022/08/06 03:19:35;;;;;;;;;;;;;;;27.99;47.16;99874.91;2093992;28;20014;-52
2022/08/06 03:20:36;;;;;;;;;;;;;;;28.00;47.04;99864.66;2092776;28;19916;-52
2022/08/06 03:21:37;;;;;;;;;;;;;;;28.00;47.12;99881.28;2092519;28;20340;-52
2022/08/06 03:22:38;;;;;;;;;;;;;;;28.00;47.23;99876.63;2091541;28;20672;-53
2022/08/06 03:23:40;;;;;;;;;;;;;;;28.00;47.04;99875.75;2087339;28;19920;-53
2022/08/06 03:24:41;;;;;;;;;;;;;;;28.00;47.10;99875.75;2094686;28;19920;-53
2022/08/06 03:25:43;;;;;;;;;;;;;;;28.00;47.06;99881.28;2091651;28;20178;-53
2022/08/06 03:26:44;;;;;;;;;;;;;;;28.00;47.04;99881.28;2085510;28;19959;-52
2022/08/06 03:27:45;;;;;;;;;;;;;;;27.99;47.08;99879.59;2093092;28;19908;-53
2022/08/06 03:28:46;;;;;;;;;;;;;;;28.00;46.97;99881.28;2089049;28;19913;-53
2022/08/06 03:29:47;;;;;;;;;;;;;;;28.00;46.97;99872.97;2087254;28;19966;-53
2022/08/06 03:30:48;;;;;;;;;;;;;;;27.99;46.84;99877.69;2090984;28;19923;-52
2022/08/06 03:31:48;;;;;;;;;;;;;;;27.99;46.97;99879.59;2088564;28;19916;-53
2022/08/06 03:32:49;;;;;;;;;;;;;;;27.98;46.97;99877.91;2094134;28;19916;-53
2022/08/06 03:33:51;;;;;;;;;;;;;;;27.97;47.07;99877.03;2092147;28;20439;-52
2022/08/06 03:34:52;;;;;;;;;;;;;;;27.97;47.03;99879.81;2090305;28;19917;-54
2022/08/06 03:35:54;;;;;;;;;;;;;;;27.97;47.01;99874.25;2090646;28;19962;-51
2022/08/06 03:36:56;;;;;;;;;;;;;;;27.97;47.01;99877.03;2086648;28;19975;-53
2022/08/06 03:37:56;;;;;;;;;;;;;;;27.97;47.05;99873.41;2087026;28;19908;-53
2022/08/06 03:38:58;;;;;;;;;;;;;;;27.97;46.83;99870.66;2093020;28;19920;-51
2022/08/06 03:39:59;;;;;;;;;;;;;;;27.97;46.98;99870.66;2088850;28;20594;-51
2022/08/06 03:41:00;;;;;;;;;;;;;;;27.97;46.79;99873.41;2091717;28;20253;-52
2022/08/06 03:42:00;;;;;;;;;;;;;;;27.96;46.71;99863.41;2091670;28;19916;-53
2022/08/06 03:43:01;;;;;;;;;;;;;;;27.96;46.96;99857.88;2089929;28;20312;-53
2022/08/06 03:44:02;;;;;;;;;;;;;;;27.97;46.86;99871.50;2094427;28;19916;-53
2022/08/06 03:45:03;;;;;;;;;;;;;;;27.97;46.84;99870.66;2089342;28;20136;-53
2022/08/06 03:46:05;;;;;;;;;;;;;;;27.96;46.83;99868.94;2092280;28;20186;-54
2022/08/06 03:47:13;;;;;;;;;;;;;;;27.97;46.98;99870.66;2092119;28;20039;-52
2022/08/06 03:48:16;;;;;;;;;;;;;;;27.97;46.77;99870.66;2090412;28;20050;-53
2022/08/06 03:49:19;;;;;;;;;;;;;;;27.97;46.92;99870.66;2092568;28;19920;-54
2022/08/06 03:50:26;;;;;;;;;;;;;;;27.95;46.86;99868.09;2093276;28;19994;-51
2022/08/06 03:51:27;;;;;;;;;;;;;;;27.96;46.78;99857.88;2087031;28;19928;-52
2022/08/06 03:52:29;;;;;;;;;;;;;;;27.95;46.88;99870.00;2087061;28;20317;-53
2022/08/06 03:53:34;;;;;;;;;;;;;;;27.94;46.71;99865.53;2089897;28;20246;-52
2022/08/06 03:54:50;;;;;;;;;;;;;;;27.94;46.85;99868.31;2088794;28;19915;-53
2022/08/06 03:55:52;;;;;;;;;;;;;;;27.93;46.80;99869.38;2091590;28;19916;-53
2022/08/06 03:56:54;;;;;;;;;;;;;;;27.93;46.81;99869.38;2091056;28;19931;-53
2022/08/06 03:57:57;;;;;;;;;;;;;;;27.92;46.87;99871.28;2090978;28;19916;-53
2022/08/06 03:58:59;;;;;;;;;;;;;;;27.92;46.81;99878.75;2093117;28;20418;-53
2022/08/06 04:00:00;;;;;;;;;;;;;;;27.92;46.64;99873.22;2091692;28;20326;-53
2022/08/06 04:01:02;;;;;;;;;;;;;;;27.91;46.80;99872.38;2089459;28;19934;-52
2022/08/06 04:02:05;;;;;;;;;;;;;;;27.92;46.74;99878.75;2086687;28;19920;-52
2022/08/06 04:03:07;;;;;;;;;;;;;;;27.91;46.90;99882.59;2091617;28;19920;-52
2022/08/06 04:04:08;;;;;;;;;;;;;;;27.91;46.71;99871.53;2091517;28;19989;-53
2022/08/06 04:05:10;;;;;;;;;;;;;;;27.91;46.54;99874.28;2092212;28;19953;-53
2022/08/06 04:06:11;;;;;;;;;;;;;;;27.91;46.80;99877.06;2090576;28;20386;-52
2022/08/06 04:07:13;;;;;;;;;;;;;;;27.90;46.55;99876.19;2093667;28;19908;-53
2022/08/06 04:08:14;;;;;;;;;;;;;;;27.91;46.60;99877.06;2090689;28;19943;-53
2022/08/06 04:09:15;;;;;;;;;;;;;;;27.91;46.69;99879.81;2093198;28;19909;-53
2022/08/06 04:10:17;;;;;;;;;;;;;;;27.92;46.74;99879.59;2093052;28;20610;-52
2022/08/06 04:11:18;;;;;;;;;;;;;;;27.92;46.61;99881.53;2091662;28;20370;-53
2022/08/06 04:12:20;;;;;;;;;;;;;;;27.93;46.59;99886.00;2093531;28;19908;-53
2022/08/06 04:13:22;;;;;;;;;;;;;;;27.92;46.61;99885.13;2090704;28;20668;-52
2022/08/06 04:14:23;;;;;;;;;;;;;;;27.92;46.73;99885.13;2090807;28;19912;-53
2022/08/06 04:15:24;;;;;;;;;;;;;;;27.94;46.67;99893.25;2090765;28;20304;-53
2022/08/06 04:16:25;;;;;;;;;;;;;;;27.93;46.59;99880.47;2087819;28;19916;-52
2022/08/06 04:17:26;;;;;;;;;;;;;;;27.92;46.59;99884.28;2093799;28;19969;-54
2022/08/06 04:18:28;;;;;;;;;;;;;;;27.93;46.44;99886.84;2090938;28;19998;-52
2022/08/06 04:19:29;;;;;;;;;;;;;;;27.93;46.59;99883.25;2082377;28;20078;-53
2022/08/06 04:20:31;;;;;;;;;;;;;;;27.92;46.76;99881.53;2090817;28;19916;-52
2022/08/06 04:21:31;;;;;;;;;;;;;;;27.91;46.57;99886.22;2089004;28;20473;-52
2022/08/06 04:22:32;;;;;;;;;;;;;;;27.93;46.67;99888.78;2093438;28;19952;-52
2022/08/06 04:23:32;;;;;;;;;;;;;;;27.92;46.52;99889.81;2089930;28;20011;-53
2022/08/06 04:24:33;;;;;;;;;;;;;;;27.92;46.58;99884.28;2089059;28;19924;-53
2022/08/06 04:25:37;;;;;;;;;;;;;;;27.92;46.61;99895.38;2093079;28;19916;-52
2022/08/06 04:26:38;;;;;;;;;;;;;;;27.92;46.57;99889.81;2087419;28;19967;-53
2022/08/06 04:27:40;;;;;;;;;;;;;;;27.90;46.65;99891.94;2090059;28;20650;-52
2022/08/06 04:28:42;;;;;;;;;;;;;;;27.90;46.54;99895.56;2091214;28;19916;-52
2022/08/06 04:29:43;;;;;;;;;;;;;;;27.90;46.55;99897.50;2091075;28;19979;-53
2022/08/06 04:30:44;;;;;;;;;;;;;;;27.90;46.74;99897.50;2088281;28;19995;-53
2022/08/06 04:31:46;;;;;;;;;;;;;;;27.89;46.56;99901.34;2091568;28;19944;-54
2022/08/06 04:32:46;;;;;;;;;;;;;;;27.89;46.67;99913.28;2090519;28;21725;-52
2022/08/06 04:33:47;;;;;;;;;;;;;;;27.89;46.62;99906.88;2090212;28;19966;-53
2022/08/06 04:34:48;;;;;;;;;;;;;;;27.89;46.52;99901.34;2084790;28;19921;-52
2022/08/06 04:35:49;;;;;;;;;;;;;;;27.89;46.40;99907.72;2085163;28;19983;-52
2022/08/06 04:36:50;;;;;;;;;;;;;;;27.88;46.59;99905.16;2090994;28;20508;-50
2022/08/06 04:37:51;;;;;;;;;;;;;;;27.89;46.53;99909.66;2085821;28;19920;-53
2022/08/06 04:38:52;;;;;;;;;;;;;;;27.88;46.69;99906.03;2092898;28;20330;-52
2022/08/06 04:39:52;;;;;;;;;;;;;;;27.89;46.77;99904.13;2087349;28;19912;-53
2022/08/06 04:40:53;;;;;;;;;;;;;;;27.88;46.50;99907.94;2089406;28;20301;-52
2022/08/06 04:41:54;;;;;;;;;;;;;;;27.87;46.59;99907.09;2087349;28;19920;-54
2022/08/06 04:42:55;;;;;;;;;;;;;;;27.88;46.47;99910.69;2091379;28;19922;-53
2022/08/06 04:43:55;;;;;;;;;;;;;;;27.87;46.62;99915.41;2088789;28;20347;-51
2022/08/06 04:44:55;;;;;;;;;;;;;;;27.87;46.63;99909.00;2089594;28;20115;-52
2022/08/06 04:45:56;;;;;;;;;;;;;;;27.87;46.43;99914.53;2088849;28;19935;-53
2022/08/06 04:46:57;;;;;;;;;;;;;;;27.86;46.72;99915.63;2088407;28;19916;-54
2022/08/06 04:47:58;;;;;;;;;;;;;;;27.85;46.61;99920.28;2089660;28;19924;-52
2022/08/06 04:48:59;;;;;;;;;;;;;;;27.86;46.55;99923.94;2083551;28;19928;-52
2022/08/06 04:49:59;;;;;;;;;;;;;;;27.85;46.48;99928.59;2093507;28;20413;-52
2022/08/06 04:51:02;;;;;;;;;;;;;;;27.85;46.62;99916.66;2084779;28;19951;-53
2022/08/06 04:52:02;;;;;;;;;;;;;;;27.86;46.58;99929.47;2090760;28;19948;-52
2022/08/06 04:53:06;;;;;;;;;;;;;;;27.86;46.58;99927.53;2078626;28;20085;-53
2022/08/06 04:54:07;;;;;;;;;;;;;;;27.85;46.72;99922.22;2084384;28;20007;-53
2022/08/06 04:55:07;;;;;;;;;;;;;;;27.86;46.69;99929.47;2085380;28;20605;-52
2022/08/06 04:56:08;;;;;;;;;;;;;;;27.86;46.72;99919.25;2090150;28;20026;-52
2022/08/06 04:57:08;;;;;;;;;;;;;;;27.86;46.46;99923.94;2091248;28;19927;-53
2022/08/06 04:58:10;;;;;;;;;;;;;;;27.87;46.52;99925.63;2089020;28;19916;-52
2022/08/06 04:59:10;;;;;;;;;;;;;;;27.86;46.60;99921.16;2090276;28;19920;-53
2022/08/06 05:00:11;;;;;;;;;;;;;;;27.86;46.64;99923.94;2088642;28;20026;-53
2022/08/06 05:01:11;;;;;;;;;;;;;;;27.86;46.65;99930.31;2088907;28;19928;-52
2022/08/06 05:02:11;;;;;;;;;;;;;;;27.87;46.57;99931.16;2090020;28;19923;-53
2022/08/06 05:03:12;;;;;;;;;;;;;;;27.87;46.48;99936.69;2091452;28;19924;-53
2022/08/06 05:04:13;;;;;;;;;;;;;;;27.86;46.38;99935.84;2087837;28;19916;-53
2022/08/06 05:05:14;;;;;;;;;;;;;;;27.87;46.49;99931.16;2091740;28;20761;-52
2022/08/06 05:06:17;;;;;;;;;;;;;;;27.86;46.52;99938.63;2087141;28;20007;-54
2022/08/06 05:07:24;;;;;;;;;;;;;;;27.87;46.65;99942.25;2091964;28;20815;-53
2022/08/06 05:08:26;;;;;;;;;;;;;;;27.86;46.57;99937.78;2085469;28;20036;-53
2022/08/06 05:09:27;;;;;;;;;;;;;;;27.86;46.54;99938.63;2090081;28;19923;-51
2022/08/06 05:10:37;;;;;;;;;;;;;;;27.86;46.43;99940.56;2086187;28;19916;-52
2022/08/06 05:11:40;;;;;;;;;;;;;;;27.85;46.58;99938.81;2089390;28;19920;-53
2022/08/06 05:12:49;;;;;;;;;;;;;;;27.85;46.36;99939.69;2089163;28;19920;-52
2022/08/06 05:13:52;;;;;;;;;;;;;;;27.85;46.40;99941.59;2086771;28;20274;-53
2022/08/06 05:15:07;;;;;;;;;;;;;;;27.85;46.55;99938.81;2090324;28;19987;-52
2022/08/06 05:16:09;;;;;;;;;;;;;;;27.85;46.43;99949.91;2087072;28;19928;-53
2022/08/06 05:17:13;;;;;;;;;;;;;;;27.85;46.56;99941.59;2089747;28;20331;-53
2022/08/06 05:18:17;;;;;;;;;;;;;;;27.85;46.34;99949.91;2089257;28;20350;-52
2022/08/06 05:19:21;;;;;;;;;;;;;;;27.85;46.58;99949.91;2087819;28;19942;-53
2022/08/06 05:20:21;;;;;;;;;;;;;;;27.84;46.56;99948.22;2094506;28;19973;-53
2022/08/06 05:21:25;;;;;;;;;;;;;;;27.84;46.37;99948.22;2087705;28;19931;-52
2022/08/06 05:22:27;;;;;;;;;;;;;;;27.85;46.29;99947.13;2092421;28;20344;-53
2022/08/06 05:23:29;;;;;;;;;;;;;;;27.83;46.54;99947.38;2087430;28;19920;-53
2022/08/06 05:24:29;;;;;;;;;;;;;;;27.84;46.50;99945.44;2089904;28;19942;-53